createdAt,value
2022-12-24T00:02:21.864Z,74.79
2022-12-24T00:04:48.383Z,74.74
2022-12-24T00:07:14.994Z,74.60
2022-12-24T00:09:41.490Z,73.74
2022-12-24T00:12:08.118Z,74.27
2022-12-24T00:14:34.669Z,75.45
2022-12-24T00:17:01.433Z,76.75
2022-12-24T00:19:27.960Z,77.76
2022-12-24T00:21:54.518Z,77.49
2022-12-24T00:24:21.249Z,77.72
2022-12-24T00:26:47.753Z,79.16
2022-12-24T00:29:14.285Z,80.42
2022-12-24T00:31:40.754Z,80.20
2022-12-24T00:34:08.626Z,80.99
2022-12-24T00:36:35.127Z,80.74
2022-12-24T00:39:01.677Z,80.79
2022-12-24T00:41:29.282Z,80.48
2022-12-24T00:44:02.081Z,79.54
2022-12-24T00:46:30.544Z,79.32
2022-12-24T00:48:57.139Z,79.51
2022-12-24T00:51:24.828Z,78.65
2022-12-24T00:53:52.252Z,78.33
2022-12-24T00:56:18.788Z,78.40
2022-12-24T00:58:45.340Z,77.29
2022-12-24T01:01:12.572Z,77.05
2022-12-24T01:03:39.352Z,76.29
2022-12-24T01:06:11.980Z,75.66
2022-12-24T01:08:38.910Z,75.59
2022-12-24T01:11:06.543Z,75.17
2022-12-24T01:13:33.160Z,74.90
2022-12-24T01:15:59.975Z,74.01
2022-12-24T01:18:27.143Z,73.26
2022-12-24T01:20:58.736Z,73.42
2022-12-24T01:23:25.465Z,73.42
2022-12-24T01:25:52.089Z,72.61
2022-12-24T01:28:19.403Z,72.95
2022-12-24T01:30:46.055Z,72.00
2022-12-24T01:33:12.998Z,71.73
2022-12-24T01:35:40.766Z,71.35
2022-12-24T01:38:07.462Z,70.86
2022-12-24T01:40:52.514Z,70.19
2022-12-24T01:43:25.026Z,70.75
2022-12-24T01:46:02.050Z,70.39
2022-12-24T01:48:36.274Z,70.45
2022-12-24T01:51:27.828Z,69.88
2022-12-24T01:54:01.986Z,69.89
2022-12-24T01:56:29.873Z,70.16
2022-12-24T01:59:01.088Z,70.10
2022-12-24T02:01:27.646Z,69.52
2022-12-24T02:03:54.398Z,69.35
2022-12-24T02:06:21.515Z,69.27
2022-12-24T02:08:48.534Z,69.73
2022-12-24T02:11:16.106Z,69.28
2022-12-24T02:13:46.678Z,69.28
2022-12-24T02:16:34.578Z,69.27
2022-12-24T02:19:38.987Z,69.42
2022-12-24T02:22:29.055Z,69.50
2022-12-24T02:25:25.891Z,69.41
2022-12-24T02:28:00.355Z,69.38
2022-12-24T02:30:39.040Z,68.92
2022-12-24T02:33:18.842Z,70.03
2022-12-24T02:35:50.529Z,70.34
2022-12-24T02:38:26.402Z,68.93
2022-12-24T02:41:03.882Z,69.23
2022-12-24T02:43:35.849Z,69.79
2022-12-24T02:46:10.222Z,69.74
2022-12-24T02:48:38.039Z,69.90
2022-12-24T02:51:06.937Z,68.84
2022-12-24T02:53:34.042Z,69.47
2022-12-24T02:56:24.949Z,70.49
2022-12-24T02:59:16.835Z,70.33
2022-12-24T03:01:56.755Z,70.26
2022-12-24T03:04:45.097Z,69.73
2022-12-24T03:07:26.195Z,69.81
2022-12-24T03:10:17.230Z,69.85
2022-12-24T03:12:56.811Z,69.78
2022-12-24T03:15:25.468Z,69.49
2022-12-24T03:17:54.640Z,69.37
2022-12-24T03:20:26.436Z,70.04
2022-12-24T03:22:53.131Z,70.56
2022-12-24T03:25:20.952Z,70.21
2022-12-24T03:27:47.636Z,70.22
2022-12-24T03:30:17.250Z,69.90
2022-12-24T03:32:44.656Z,69.36
2022-12-24T03:35:11.718Z,69.48
2022-12-24T03:37:38.460Z,70.66
2022-12-24T03:40:06.328Z,70.01
2022-12-24T03:42:32.874Z,70.32
2022-12-24T03:44:59.657Z,70.30
2022-12-24T03:47:26.148Z,70.81
2022-12-24T03:49:52.682Z,70.64
2022-12-24T03:52:19.337Z,69.87
2022-12-24T03:54:46.117Z,69.48
2022-12-24T03:57:12.752Z,69.68
2022-12-24T03:59:39.474Z,69.84
2022-12-24T04:02:06.229Z,69.78
2022-12-24T04:04:33.594Z,69.89
2022-12-24T04:07:00.340Z,69.78
2022-12-24T04:09:27.000Z,69.68
2022-12-24T04:11:53.549Z,69.28
2022-12-24T04:14:20.061Z,69.30
2022-12-24T04:16:46.972Z,69.37
2022-12-24T04:19:13.460Z,69.62
2022-12-24T04:21:40.037Z,69.93
2022-12-24T04:24:06.659Z,70.24
2022-12-24T04:26:33.194Z,69.71
2022-12-24T04:28:59.897Z,69.40
2022-12-24T04:31:26.402Z,68.95
2022-12-24T04:33:53.291Z,69.55
2022-12-24T04:36:20.356Z,68.73
2022-12-24T04:38:47.849Z,69.50
2022-12-24T04:41:23.024Z,69.62
2022-12-24T04:43:52.281Z,68.73
2022-12-24T04:46:24.337Z,69.62
2022-12-24T04:48:52.540Z,68.93
2022-12-24T04:51:20.186Z,68.94
2022-12-24T04:53:47.028Z,69.38
2022-12-24T04:56:17.284Z,70.65
2022-12-24T04:58:44.491Z,70.76
2022-12-24T05:01:26.330Z,70.17
2022-12-24T05:03:53.235Z,69.81
2022-12-24T05:06:22.580Z,70.93
2022-12-24T05:08:49.727Z,70.67
2022-12-24T05:11:16.647Z,70.17
2022-12-24T05:13:47.177Z,70.06
2022-12-24T05:16:16.262Z,70.95
2022-12-24T05:18:42.938Z,71.16
2022-12-24T05:21:11.324Z,70.52
2022-12-24T05:23:57.167Z,71.07
2022-12-24T05:26:42.033Z,71.02
2022-12-24T05:29:12.023Z,71.21
2022-12-24T05:31:40.226Z,69.87
2022-12-24T05:34:07.629Z,71.63
2022-12-24T05:36:34.578Z,70.71
2022-12-24T05:39:01.371Z,72.53
2022-12-24T05:41:28.446Z,71.21
2022-12-24T05:43:55.319Z,71.50
2022-12-24T05:46:23.801Z,71.53
2022-12-24T05:48:51.150Z,71.74
2022-12-24T05:51:19.822Z,71.64
2022-12-24T05:53:47.318Z,71.73
2022-12-24T05:56:19.668Z,71.80
2022-12-24T05:58:46.168Z,73.25
2022-12-24T06:01:13.385Z,72.67
2022-12-24T06:03:42.849Z,76.19
2022-12-24T06:06:12.632Z,76.53
2022-12-24T06:08:40.531Z,77.45
2022-12-24T06:11:10.157Z,77.70
2022-12-24T06:13:37.706Z,78.81
2022-12-24T06:16:06.234Z,78.54
2022-12-24T06:18:34.842Z,78.38
2022-12-24T06:21:01.743Z,79.00
2022-12-24T06:23:33.051Z,78.35
2022-12-24T06:26:01.389Z,78.59
2022-12-24T06:28:33.366Z,79.80
2022-12-24T06:31:03.982Z,79.38
2022-12-24T06:33:31.729Z,79.47
2022-12-24T06:35:58.306Z,78.63
2022-12-24T06:38:25.011Z,78.50
2022-12-24T06:40:51.614Z,78.12
2022-12-24T06:43:18.123Z,78.73
2022-12-24T06:45:46.556Z,79.21
2022-12-24T06:48:14.196Z,78.62
2022-12-24T06:50:40.966Z,77.81
2022-12-24T06:53:07.773Z,77.57
2022-12-24T06:55:34.463Z,77.37
2022-12-24T06:58:00.921Z,76.69
2022-12-24T07:00:27.452Z,76.27
2022-12-24T07:02:54.050Z,77.03
2022-12-24T07:05:20.554Z,77.50
2022-12-24T07:07:47.006Z,76.97
2022-12-24T07:10:15.950Z,76.41
2022-12-24T07:12:42.997Z,76.06
2022-12-24T07:15:11.155Z,75.83
2022-12-24T07:17:38.043Z,76.32
2022-12-24T07:20:05.815Z,76.58
2022-12-24T07:22:32.404Z,75.89
2022-12-24T07:24:58.890Z,75.62
2022-12-24T07:27:25.365Z,75.63
2022-12-24T07:29:51.854Z,75.07
2022-12-24T07:32:20.408Z,76.59
2022-12-24T07:34:47.057Z,75.22
2022-12-24T07:37:13.591Z,74.87
2022-12-24T07:39:40.219Z,75.55
2022-12-24T07:42:08.110Z,74.59
2022-12-24T07:44:35.040Z,74.37
2022-12-24T07:47:01.780Z,73.77
2022-12-24T07:49:28.719Z,73.52
2022-12-24T07:51:55.219Z,73.96
2022-12-24T07:54:22.076Z,73.49
2022-12-24T07:56:48.847Z,73.47
2022-12-24T07:59:15.463Z,72.95
2022-12-24T08:01:42.628Z,71.47
2022-12-24T08:04:09.312Z,72.52
2022-12-24T08:06:36.058Z,72.21
2022-12-24T08:09:03.170Z,71.96
2022-12-24T08:11:29.826Z,72.35
2022-12-24T08:13:56.306Z,73.28
2022-12-24T08:16:22.862Z,72.55
2022-12-24T08:18:49.466Z,72.13
2022-12-24T08:21:16.175Z,71.45
2022-12-24T08:23:42.726Z,71.27
2022-12-24T08:26:10.356Z,71.41
2022-12-24T08:28:37.391Z,71.36
2022-12-24T08:31:04.206Z,71.75
2022-12-24T08:33:32.183Z,70.46
2022-12-24T08:36:00.607Z,69.94
2022-12-24T08:38:27.453Z,71.20
2022-12-24T08:40:55.123Z,70.71
2022-12-24T08:43:21.917Z,69.91
2022-12-24T08:45:51.782Z,70.29
2022-12-24T08:48:18.692Z,70.07
2022-12-24T08:50:45.960Z,69.77
2022-12-24T08:53:12.780Z,69.09
2022-12-24T08:55:39.606Z,70.12
2022-12-24T08:58:06.347Z,70.02
2022-12-24T09:00:33.055Z,69.13
2022-12-24T09:02:59.662Z,69.89
2022-12-24T09:05:26.409Z,69.54
2022-12-24T09:07:53.103Z,68.63
2022-12-24T09:10:19.622Z,69.19
2022-12-24T09:12:46.183Z,69.37
2022-12-24T09:15:14.301Z,68.79
2022-12-24T09:17:41.147Z,69.35
2022-12-24T09:20:08.605Z,69.90
2022-12-24T09:22:37.120Z,68.23
2022-12-24T09:25:04.731Z,69.72
2022-12-24T09:27:31.778Z,68.93
2022-12-24T09:29:58.313Z,67.51
2022-12-24T09:32:25.060Z,67.40
2022-12-24T09:34:51.626Z,66.76
2022-12-24T09:37:18.507Z,66.86
2022-12-24T09:39:45.100Z,67.09
2022-12-24T09:42:11.594Z,67.79
2022-12-24T09:44:47.604Z,67.95
2022-12-24T09:47:47.716Z,65.36
2022-12-24T09:50:33.024Z,63.24
2022-12-24T09:53:04.142Z,63.13
2022-12-24T09:55:37.491Z,62.98
2022-12-24T09:58:06.950Z,64.08
2022-12-24T10:00:36.735Z,62.77
2022-12-24T10:03:14.476Z,65.60
2022-12-24T10:06:09.395Z,66.81
2022-12-24T10:08:36.766Z,67.30
2022-12-24T10:11:17.853Z,68.31
2022-12-24T10:13:57.732Z,68.66
2022-12-24T10:16:48.122Z,68.41
2022-12-24T10:19:59.747Z,68.16
2022-12-24T10:22:33.169Z,67.33
2022-12-24T10:25:17.965Z,66.53
2022-12-24T10:27:45.810Z,65.24
2022-12-24T10:30:19.671Z,65.84
2022-12-24T10:32:51.843Z,65.51
2022-12-24T10:35:36.027Z,64.11
2022-12-24T10:38:04.347Z,66.01
2022-12-24T10:40:32.612Z,65.02
2022-12-24T10:42:59.087Z,64.91
2022-12-24T10:45:30.461Z,65.25
2022-12-24T10:48:00.056Z,65.25
2022-12-24T10:50:36.459Z,64.53
2022-12-24T10:53:18.742Z,63.87
2022-12-24T10:55:47.828Z,62.10
2022-12-24T10:58:19.889Z,60.78
2022-12-24T11:00:51.070Z,57.54
2022-12-24T11:03:17.759Z,57.19
2022-12-24T11:05:44.355Z,58.68
2022-12-24T11:08:13.845Z,58.01
2022-12-24T11:10:42.788Z,59.91
2022-12-24T11:13:37.401Z,56.49
2022-12-24T11:16:15.404Z,59.40
2022-12-24T11:18:51.371Z,59.42
2022-12-24T11:21:33.789Z,58.35
2022-12-24T11:24:27.851Z,60.32
2022-12-24T11:26:54.738Z,60.95
2022-12-24T11:29:25.291Z,60.94
2022-12-24T11:31:55.140Z,62.36
2022-12-24T11:34:28.730Z,62.83
2022-12-24T11:37:12.353Z,63.92
2022-12-24T11:39:50.155Z,64.28
2022-12-24T11:42:26.587Z,61.87
2022-12-24T11:44:55.226Z,59.29
2022-12-24T11:47:40.760Z,53.66
2022-12-24T11:50:30.053Z,49.87
2022-12-24T11:53:02.537Z,45.28
2022-12-24T11:55:42.728Z,45.71
2022-12-24T11:58:15.427Z,46.29
2022-12-24T12:00:42.583Z,49.45
2022-12-24T12:03:25.793Z,53.67
2022-12-24T12:05:53.530Z,53.79
2022-12-24T12:08:20.824Z,52.58
2022-12-24T12:10:48.274Z,51.19
2022-12-24T12:13:17.990Z,56.23
2022-12-24T12:15:49.447Z,58.54
2022-12-24T12:18:22.179Z,59.43
2022-12-24T12:20:54.692Z,60.10
2022-12-24T12:23:36.152Z,60.14
2022-12-24T12:26:08.660Z,60.05
2022-12-24T12:28:50.422Z,59.93
2022-12-24T12:31:30.419Z,62.61
2022-12-24T12:34:04.164Z,61.94
2022-12-24T12:36:36.558Z,62.51
2022-12-24T12:39:03.017Z,62.56
2022-12-24T12:41:39.360Z,63.01
2022-12-24T12:44:24.512Z,62.47
2022-12-24T12:47:16.807Z,63.37
2022-12-24T12:50:20.974Z,62.70
2022-12-24T12:52:56.652Z,62.37
2022-12-24T12:55:38.499Z,62.41
2022-12-24T12:58:14.087Z,61.71
2022-12-24T13:00:42.471Z,61.92
2022-12-24T13:03:42.124Z,61.25
2022-12-24T13:06:21.206Z,62.26
2022-12-24T13:09:02.985Z,61.94
2022-12-24T13:11:35.478Z,63.97
2022-12-24T13:14:24.173Z,62.38
2022-12-24T13:17:02.279Z,61.99
2022-12-24T13:19:47.385Z,61.69
2022-12-24T13:22:16.604Z,61.51
2022-12-24T13:24:52.622Z,60.18
2022-12-24T13:27:32.167Z,60.67
2022-12-24T13:30:34.092Z,60.41
2022-12-24T13:33:00.731Z,60.79
2022-12-24T13:35:37.477Z,61.63
2022-12-24T13:38:31.761Z,60.93
2022-12-24T13:41:40.605Z,60.57
2022-12-24T13:44:09.143Z,59.79
2022-12-24T13:47:07.148Z,60.78
2022-12-24T13:49:35.420Z,60.75
2022-12-24T13:52:29.390Z,61.24
2022-12-24T13:54:58.893Z,60.31
2022-12-24T13:57:25.361Z,60.83
2022-12-24T13:59:58.204Z,60.64
2022-12-24T14:02:25.587Z,60.79
2022-12-24T14:04:52.381Z,60.54
2022-12-24T14:07:19.801Z,60.46
2022-12-24T14:09:50.497Z,62.03
2022-12-24T14:12:49.426Z,59.61
2022-12-24T14:15:45.395Z,61.94
2022-12-24T14:18:18.524Z,61.13
2022-12-24T14:20:49.779Z,60.23
2022-12-24T14:23:34.657Z,59.84
2022-12-24T14:26:02.310Z,61.36
2022-12-24T14:28:38.720Z,60.38
2022-12-24T14:31:06.160Z,60.97
2022-12-24T14:33:34.881Z,61.79
2022-12-24T14:36:02.608Z,61.03
2022-12-24T14:38:29.695Z,60.10
2022-12-24T14:41:05.791Z,59.77
2022-12-24T14:43:56.438Z,60.86
2022-12-24T14:46:41.542Z,59.52
2022-12-24T14:49:30.044Z,59.73
2022-12-24T14:51:59.280Z,60.35
2022-12-24T14:54:39.861Z,61.00
2022-12-24T14:57:12.633Z,60.74
2022-12-24T14:59:43.875Z,62.09
2022-12-24T15:02:30.568Z,61.21
2022-12-24T15:05:29.684Z,60.67
2022-12-24T15:07:59.279Z,59.73
2022-12-24T15:10:40.928Z,59.57
2022-12-24T15:13:18.598Z,59.02
2022-12-24T15:15:52.018Z,58.98
2022-12-24T15:18:22.969Z,59.05
2022-12-24T15:20:56.089Z,58.50
2022-12-24T15:23:36.881Z,58.74
2022-12-24T15:26:27.684Z,58.77
2022-12-24T15:29:03.338Z,59.55
2022-12-24T15:31:31.372Z,60.51
2022-12-24T15:34:01.886Z,60.64
2022-12-24T15:36:34.874Z,59.72
2022-12-24T15:39:07.505Z,60.60
2022-12-24T15:42:00.379Z,61.31
2022-12-24T15:44:32.759Z,60.52
2022-12-24T15:47:01.170Z,61.21
2022-12-24T15:49:28.802Z,60.73
2022-12-24T15:52:03.702Z,59.99
2022-12-24T15:54:30.213Z,61.24
2022-12-24T15:56:56.737Z,61.06
2022-12-24T15:59:31.354Z,60.88
2022-12-24T16:02:38.375Z,62.04
2022-12-24T16:05:20.541Z,62.46
2022-12-24T16:08:23.073Z,62.78
2022-12-24T16:10:53.174Z,63.21
2022-12-24T16:13:25.379Z,64.31
2022-12-24T16:15:55.089Z,62.76
2022-12-24T16:18:31.270Z,62.88
2022-12-24T16:20:58.176Z,62.52
2022-12-24T16:23:36.517Z,62.28
2022-12-24T16:26:03.278Z,62.42
2022-12-24T16:28:29.740Z,62.26
2022-12-24T16:30:56.811Z,62.02
2022-12-24T16:33:26.315Z,61.05
2022-12-24T16:35:52.955Z,60.45
2022-12-24T16:38:19.476Z,60.76
2022-12-24T16:40:46.090Z,61.81
2022-12-24T16:43:31.148Z,60.85
2022-12-24T16:46:03.954Z,60.38
2022-12-24T16:48:30.991Z,61.34
2022-12-24T16:50:57.587Z,60.42
2022-12-24T16:53:24.231Z,59.61
2022-12-24T16:55:51.754Z,60.95
2022-12-24T16:58:19.745Z,59.92
2022-12-24T17:00:46.680Z,60.71
2022-12-24T17:03:13.520Z,60.53
2022-12-24T17:05:41.175Z,59.70
2022-12-24T17:08:08.753Z,59.25
2022-12-24T17:10:36.035Z,59.65
2022-12-24T17:13:02.790Z,59.20
2022-12-24T17:15:29.581Z,59.16
2022-12-24T17:17:56.569Z,59.49
2022-12-24T17:20:24.597Z,59.36
2022-12-24T17:22:51.492Z,59.32
2022-12-24T17:25:18.140Z,59.23
2022-12-24T17:27:44.947Z,58.86
2022-12-24T17:30:11.865Z,59.62
2022-12-24T17:32:39.565Z,59.59
2022-12-24T17:35:07.682Z,59.35
2022-12-24T17:37:34.288Z,59.33
2022-12-24T17:40:00.945Z,59.04
2022-12-24T17:42:27.467Z,58.96
2022-12-24T17:44:54.311Z,58.64
2022-12-24T17:47:20.995Z,58.49
2022-12-24T17:49:47.656Z,58.85
2022-12-24T17:52:14.127Z,58.57
2022-12-24T17:54:40.563Z,58.80
2022-12-24T17:57:07.065Z,58.63
2022-12-24T17:59:33.841Z,58.66
2022-12-24T18:02:00.765Z,59.01
2022-12-24T18:04:27.359Z,59.15
2022-12-24T18:07:01.461Z,59.30
2022-12-24T18:09:29.136Z,59.20
2022-12-24T18:11:55.847Z,58.85
2022-12-24T18:14:22.417Z,59.39
2022-12-24T18:16:49.761Z,59.04
2022-12-24T18:19:16.361Z,59.74
2022-12-24T18:21:43.086Z,61.92
2022-12-24T18:24:11.987Z,61.61
2022-12-24T18:26:38.754Z,61.83
2022-12-24T18:29:06.104Z,61.55
2022-12-24T18:31:33.760Z,62.50
2022-12-24T18:34:02.270Z,61.20
2022-12-24T18:36:29.180Z,60.92
2022-12-24T18:38:55.964Z,62.39
2022-12-24T18:41:25.122Z,62.49
2022-12-24T18:43:52.077Z,61.71
2022-12-24T18:46:21.189Z,62.05
2022-12-24T18:48:48.247Z,62.30
2022-12-24T18:51:15.833Z,62.35
2022-12-24T18:53:42.658Z,62.33
2022-12-24T18:56:15.781Z,61.85
2022-12-24T18:58:43.221Z,62.52
2022-12-24T19:01:14.898Z,61.90
2022-12-24T19:03:41.582Z,61.38
2022-12-24T19:06:09.276Z,63.00
2022-12-24T19:11:23.637Z,63.74
2022-12-24T19:13:50.885Z,63.06
2022-12-24T19:16:18.013Z,62.46
2022-12-24T19:18:44.628Z,63.85
2022-12-24T19:21:12.879Z,66.69
2022-12-24T19:23:39.491Z,65.75
2022-12-24T19:26:06.268Z,65.08
2022-12-24T19:28:33.671Z,64.10
2022-12-24T19:31:09.087Z,62.93
2022-12-24T19:33:42.199Z,62.90
2022-12-24T19:36:11.377Z,62.66
2022-12-24T19:38:38.000Z,61.97
2022-12-24T19:41:10.185Z,63.20
2022-12-24T19:43:38.934Z,63.01
2022-12-24T19:46:05.723Z,64.17
2022-12-24T19:48:32.609Z,63.16
2022-12-24T19:51:01.657Z,62.72
2022-12-24T19:53:28.333Z,63.62
2022-12-24T19:55:55.031Z,63.08
2022-12-24T19:58:21.811Z,63.71
2022-12-24T20:00:48.750Z,63.21
2022-12-24T20:03:15.477Z,66.63
2022-12-24T20:05:42.480Z,66.32
2022-12-24T20:08:09.210Z,65.75
2022-12-24T20:10:43.369Z,65.33
2022-12-24T20:13:10.947Z,64.46
2022-12-24T20:15:44.595Z,65.18
2022-12-24T20:18:12.215Z,66.46
2022-12-24T20:20:39.693Z,66.32
2022-12-24T20:23:07.591Z,64.64
2022-12-24T20:25:35.886Z,67.52
2022-12-24T20:28:03.074Z,67.47
2022-12-24T20:30:29.890Z,66.27
2022-12-24T20:32:57.399Z,65.23
2022-12-24T20:35:24.513Z,64.84
2022-12-24T20:37:51.118Z,64.38
2022-12-24T20:40:17.838Z,63.46
2022-12-24T20:42:44.300Z,62.96
2022-12-24T20:45:10.836Z,62.89
2022-12-24T20:47:37.353Z,63.36
2022-12-24T20:50:04.281Z,62.44
2022-12-24T20:52:30.775Z,62.55
2022-12-24T20:54:57.261Z,61.76
2022-12-24T20:57:27.762Z,62.00
2022-12-24T20:59:56.726Z,61.99
2022-12-24T21:02:26.809Z,61.54
2022-12-24T21:04:59.794Z,62.85
2022-12-24T21:07:28.448Z,61.98
2022-12-24T21:09:54.957Z,61.90
2022-12-24T21:12:40.189Z,62.29
2022-12-24T21:15:06.993Z,63.65
2022-12-24T21:17:34.043Z,62.71
2022-12-24T21:20:00.754Z,65.97
2022-12-24T21:22:27.381Z,65.37
2022-12-24T21:24:53.990Z,66.40
2022-12-24T21:27:20.967Z,66.24
2022-12-24T21:29:47.743Z,66.29
2022-12-24T21:32:14.712Z,67.23
2022-12-24T21:34:41.326Z,65.86
2022-12-24T21:37:08.053Z,65.70
2022-12-24T21:39:34.569Z,64.84
2022-12-24T21:42:01.068Z,63.98
2022-12-24T21:44:27.563Z,66.78
2022-12-24T21:46:54.031Z,67.17
2022-12-24T21:49:39.354Z,66.53
2022-12-24T21:52:06.013Z,67.35
2022-12-24T21:54:33.155Z,67.34
2022-12-24T21:57:23.534Z,66.94
2022-12-24T21:59:51.723Z,66.33
2022-12-24T22:02:19.412Z,65.73
2022-12-24T22:04:46.415Z,65.08
2022-12-24T22:07:40.483Z,68.68
2022-12-24T22:10:26.688Z,67.09
2022-12-24T22:12:53.750Z,67.51
2022-12-24T22:15:20.847Z,67.99
2022-12-24T22:17:47.498Z,66.90
2022-12-24T22:20:13.997Z,65.39
2022-12-24T22:22:40.779Z,66.50
2022-12-24T22:25:07.589Z,67.70
2022-12-24T22:27:34.335Z,67.03
2022-12-24T22:30:00.819Z,65.49
2022-12-24T22:32:27.370Z,65.71
2022-12-24T22:34:54.071Z,66.90
2022-12-24T22:37:20.732Z,66.48
2022-12-24T22:39:47.312Z,65.76
2022-12-24T22:42:14.037Z,65.70
2022-12-24T22:44:40.525Z,64.25
2022-12-24T22:47:06.967Z,65.29
2022-12-24T22:49:35.356Z,64.59
2022-12-24T22:52:02.353Z,64.48
2022-12-24T22:54:29.359Z,64.10
2022-12-24T22:56:56.024Z,64.17
2022-12-24T22:59:22.692Z,64.17
2022-12-24T23:01:49.664Z,65.64
2022-12-24T23:04:16.374Z,68.29
2022-12-24T23:06:44.631Z,65.93
2022-12-24T23:09:16.884Z,65.94
2022-12-24T23:11:44.420Z,67.93
2022-12-24T23:14:37.526Z,66.31
2022-12-24T23:17:04.156Z,65.68
2022-12-24T23:19:33.558Z,66.55
2022-12-24T23:22:01.238Z,66.47
2022-12-24T23:24:27.971Z,67.42
2022-12-24T23:26:54.951Z,66.54
2022-12-24T23:29:21.553Z,66.21
2022-12-24T23:31:48.100Z,67.48
2022-12-24T23:34:14.780Z,68.62
2022-12-24T23:36:41.350Z,66.74
2022-12-24T23:39:07.946Z,66.70
2022-12-24T23:41:34.823Z,66.94
2022-12-24T23:44:01.358Z,66.64
2022-12-24T23:46:28.277Z,66.72
2022-12-24T23:48:55.158Z,66.00
2022-12-24T23:51:25.211Z,66.21
2022-12-24T23:53:53.050Z,65.09
2022-12-24T23:56:20.939Z,65.87
2022-12-24T23:58:48.178Z,65.92
